Terminal Aerodrome Forecast
Issued by NWS

Home | Current Version | Previous Version | Text Only | Print | Product List | Glossary On
Versions: 1 2 3 4 5 6 7 8 9 10 11 12 13 14 15 16 17 18 19 20 21 22 23 24 25 26 27
737
FTUS43 KDLH 201140
TAFBRD
TAF
KBRD 201140Z 2012/2112 13013G18KT P6SM BKN250
     FM201400 15009KT P6SM SCT015 OVC080
     FM201500 15009KT P6SM VCSH OVC060
     FM201700 16009KT 3SM -SHRA OVC030
     FM201800 16009KT 2SM SHRA OVC008
     FM202000 19008KT 3SM SHRA OVC008
     FM202100 19008KT P6SM VCSH OVC003
     FM202300 25009KT P6SM BKN010
     FM210200 28009KT P6SM SCT025=

USA.gov is the U.S. government's official web portal to all federal, state and local government web resources and services.